This is the latest recevied weather packets stored in our database for station/object W2BP-13. If no packets are shown the sender has not sent any weather packets the latest 1 day(s).
| Time | Temp. | Humidity | Pressure | Rain* | Wind** | Luminosity | Snow |
|---|---|---|---|---|---|---|---|
| 1778050532 | 16.67° C | 60% | 1015.8 hPa | 0 mm | 0 m/s | - | - |
| 1778049642 | 17.22° C | 59% | 1015.6 hPa | 0 mm | 0 m/s | - | - |
| 1778048733 | 17.78° C | 56% | 1015.5 hPa | 0 mm | 0 m/s | - | - |
| 1778047833 | 17.78° C | 58% | 1015.1 hPa | 0 mm | 0 m/s | - | - |
| 1778046932 | 18.89° C | 57% | 1015.3 hPa | 0 mm | 0.89 m/s, 194° | - | - |
| 1778046032 | 18.89° C | 55% | 1014.7 hPa | 0 mm | 0 m/s | - | - |
| 1778045133 | 19.44° C | 54% | 1014.6 hPa | 0 mm | 0.45 m/s, 195° | - | - |
| 1778044232 | 20° C | 55% | 1014.5 hPa | 0 mm | 0 m/s | - | - |
| 1778043333 | 21.67° C | 47% | 1014.5 hPa | 0 mm | 0 m/s | - | - |
| 1778042433 | 22.22° C | 44% | 1014.5 hPa | 0 mm | 0.45 m/s, 186° | - | - |
| 1778041533 | 22.78° C | 45% | 1014.3 hPa | 0 mm | 0 m/s | - | - |
| 1778040632 | 22.78° C | 46% | 1014.4 hPa | 0 mm | 0.89 m/s, 172° | - | - |
| 1778039732 | 23.89° C | 41% | 1014 hPa | 0 mm | 0.45 m/s, 177° | - | - |
| 1778038832 | 23.33° C | 43% | 1013.8 hPa | 0 mm | 0.45 m/s, 212° | - | - |
| 1778037932 | 23.89° C | 38% | 1013.9 hPa | 0 mm | 0 m/s | - | - |
| 1778037032 | 25° C | 37% | 1014.1 hPa | 0 mm | 0 m/s | - | - |
| 1778036132 | 26.11° C | 34% | 1013.8 hPa | 0 mm | 0 m/s | - | - |
| 1778035232 | 26.67° C | 31% | 1013.5 hPa | 0 mm | 0 m/s | - | - |
| 1778034332 | 27.78° C | 30% | 1013.6 hPa | 0 mm | 0 m/s | - | - |
| 1778033433 | 30.56° C | 25% | 1013.6 hPa | 0 mm | 0 m/s | - | - |
| 1778032532 | 30° C | 24% | 1013.7 hPa | 0 mm | 0 m/s | - | - |
| 1778031632 | 28.89° C | 27% | 1013.7 hPa | 0 mm | 0 m/s | - | - |
| 1778030733 | 29.44° C | 25% | 1013.6 hPa | 0 mm | 0 m/s | - | - |
| 1778029832 | 30.56° C | 22% | 1013.6 hPa | 0 mm | 0 m/s | - | - |
| 1778028932 | 30° C | 23% | 1013.8 hPa | 0 mm | 0 m/s | - | - |
* Rain latest hour (hover to see other rain measurements)
** Current wind speed in m/s (hover to see current wind gust speed)